Terminal Aerodrome Forecast
Issued by NWS

Home | Current Version | Previous Version | Text Only | Print | Product List | Glossary On
Versions: 1 2 3 4 5 6 7 8 9 10 11 12 13 14 15 16 17 18 19 20 21 22 23 24 25 26 27 28
881
FTUS46 KEKA 232332
TAFCEC
TAF
KCEC 232332Z 2400/2424 34012G24KT P6SM SKC
     FM240700 15006KT P6SM SKC
     FM240900 VRB04KT 3SM BR OVC005
     FM241200 VRB03KT 3/4SM BR OVC002
     FM241700 30006KT 3SM BR OVC003
     FM241900 34013G24KT P6SM SKC=

USA.gov is the U.S. government's official web portal to all federal, state and local government web resources and services.